createdAt,value
2023-03-21T00:05:05.868Z,5.5
2023-03-21T00:14:57.651Z,5.6
2023-03-21T00:24:57.664Z,5.6
2023-03-21T00:35:21.460Z,5.4
2023-03-21T00:44:57.617Z,5.4
2023-03-21T00:54:57.605Z,5.2
2023-03-21T01:04:57.600Z,4.9
2023-03-21T01:14:57.600Z,4.9
2023-03-21T01:25:08.853Z,4.8
2023-03-21T01:34:57.573Z,4.8
2023-03-21T01:44:57.556Z,4.8
2023-03-21T01:54:57.549Z,4.7
2023-03-21T02:04:57.513Z,4.5
2023-03-21T02:14:57.521Z,4.6
2023-03-21T02:25:01.314Z,4.6
2023-03-21T02:34:59.249Z,4.5
2023-03-21T02:44:57.474Z,4.6
2023-03-21T02:54:57.482Z,4.4
2023-03-21T03:04:58.750Z,4.1
2023-03-21T03:15:03.552Z,4.1
2023-03-21T03:24:58.577Z,4.3
2023-03-21T03:34:57.421Z,4.3
2023-03-21T03:44:57.423Z,4.3
2023-03-21T03:54:57.401Z,4
2023-03-21T04:04:57.396Z,3.8
2023-03-21T04:15:08.170Z,4.1
2023-03-21T04:24:57.381Z,4.1
2023-03-21T04:34:57.356Z,3.9
2023-03-21T04:44:57.334Z,3.7
2023-03-21T04:54:57.372Z,3.8
2023-03-21T05:04:57.340Z,3.7
2023-03-21T05:14:57.311Z,3.6
2023-03-21T05:24:57.298Z,3.6
2023-03-21T05:34:57.291Z,3.6
2023-03-21T05:44:57.257Z,3.6
2023-03-21T05:54:57.266Z,3.7
2023-03-21T06:04:57.243Z,3.7
2023-03-21T06:14:57.245Z,3.7
2023-03-21T06:24:57.281Z,3.8
2023-03-21T06:34:57.222Z,3.9
2023-03-21T06:44:57.220Z,4
2023-03-21T06:54:57.226Z,4.3
2023-03-21T07:04:57.180Z,4.5
2023-03-21T07:14:57.189Z,4.9
2023-03-21T07:25:04.636Z,5.2
2023-03-21T07:34:57.136Z,5.6
2023-03-21T07:44:57.119Z,6.1
2023-03-21T07:54:57.136Z,6.7
2023-03-21T08:04:57.116Z,7.2
2023-03-21T08:14:59.962Z,7.7
2023-03-21T08:24:57.077Z,8.2
2023-03-21T08:34:57.048Z,8.8
2023-03-21T08:44:57.039Z,9.3
2023-03-21T08:54:57.020Z,10
2023-03-21T09:04:57.093Z,10.5
2023-03-21T09:14:57.004Z,11.2
2023-03-21T09:24:56.997Z,11.8
2023-03-21T09:34:56.998Z,12.3
2023-03-21T09:44:56.955Z,12.8
2023-03-21T09:54:56.921Z,13.6
2023-03-21T10:04:56.940Z,15.1
2023-03-21T10:14:57.917Z,16.7
2023-03-21T10:24:56.863Z,17.9
2023-03-21T10:44:56.813Z,19.4
2023-03-21T10:54:56.811Z,20.1
2023-03-21T11:04:56.774Z,20.6
2023-03-21T11:14:56.759Z,21.5
2023-03-21T11:24:56.756Z,22
2023-03-21T11:34:56.736Z,22.7
2023-03-21T11:44:56.723Z,22.7
2023-03-21T11:54:56.686Z,23.8
2023-03-21T12:04:56.649Z,24.5
2023-03-21T12:14:56.630Z,24.2
2023-03-21T12:24:56.606Z,24.1
2023-03-21T12:34:56.583Z,24.1
2023-03-21T12:44:56.564Z,24
2023-03-21T12:54:56.565Z,24.7
2023-03-21T13:04:56.538Z,24.9
2023-03-21T13:14:56.520Z,25.8
2023-03-21T13:24:56.477Z,26.6
2023-03-21T13:34:56.549Z,27
2023-03-21T13:44:56.430Z,26.5
2023-03-21T13:54:56.416Z,26.6
2023-03-21T14:05:04.936Z,26.8
2023-03-21T14:14:57.778Z,26.9
2023-03-21T14:24:56.368Z,26.5
2023-03-21T14:34:56.342Z,26.2
2023-03-21T14:44:56.655Z,25.6
2023-03-21T14:54:56.291Z,25.4
2023-03-21T15:04:56.418Z,24.7
2023-03-21T15:14:56.254Z,24.2
2023-03-21T15:24:56.217Z,24
2023-03-21T15:34:56.212Z,23.6
2023-03-21T15:44:56.166Z,23.5
2023-03-21T15:54:56.191Z,23
2023-03-21T16:04:56.158Z,22.5
2023-03-21T16:14:56.100Z,22
2023-03-21T16:24:56.092Z,21.4
2023-03-21T16:34:56.072Z,21
2023-03-21T16:44:56.062Z,20.6
2023-03-21T16:54:56.045Z,20.2
2023-03-21T17:04:56.016Z,19.7
2023-03-21T17:14:55.977Z,19.1
2023-03-21T17:24:55.970Z,18.4
2023-03-21T17:34:55.966Z,17.9
2023-03-21T17:44:55.930Z,17.5
2023-03-21T17:54:55.915Z,17
2023-03-21T18:04:55.989Z,16.7
2023-03-21T18:14:55.865Z,16.2
2023-03-21T18:24:55.843Z,15.8
2023-03-21T18:34:55.819Z,15.5
2023-03-21T18:44:55.832Z,15.1
2023-03-21T18:54:55.797Z,14.8
2023-03-21T19:04:55.879Z,14.5
2023-03-21T19:14:55.773Z,14.2
2023-03-21T19:24:55.950Z,13.8
2023-03-21T19:34:55.707Z,13.3
2023-03-21T19:44:55.684Z,13
2023-03-21T19:54:55.689Z,12.8
2023-03-21T20:04:55.668Z,12.6
2023-03-21T20:15:06.952Z,12.2
2023-03-21T20:24:55.633Z,11.7
2023-03-21T20:44:58.961Z,11.2
2023-03-21T20:54:55.566Z,10.9
2023-03-21T21:05:24.054Z,10.6
2023-03-21T21:14:55.601Z,10.3
2023-03-21T21:24:55.561Z,10.2
2023-03-21T21:34:55.552Z,10
2023-03-21T21:44:55.526Z,9.8
2023-03-21T21:54:55.622Z,9.5
2023-03-21T22:04:55.511Z,9.3
2023-03-21T22:14:55.475Z,9.1
2023-03-21T22:24:55.472Z,9
2023-03-21T22:34:55.447Z,9
2023-03-21T22:44:55.443Z,8.9
2023-03-21T22:54:55.425Z,8.8
2023-03-21T23:04:55.400Z,8.4
2023-03-21T23:14:55.399Z,8.3
2023-03-21T23:24:55.371Z,8.3
2023-03-21T23:34:55.398Z,8.2
2023-03-21T23:44:55.296Z,8
2023-03-21T23:54:55.292Z,7.7
